| time (UTC) | temp C | wind direction | speed KPH | gust KPH | rain 1hr cm | rain 24hr cm | rain mn cm | humidity % | barometer mb |
| 20260510141559 | 21 | 63 | 0.0 | 8.0 | 0.00 | 0.00 | 0.00 | 88 | 1015.4 |
| 20260510141502 | 20 | 240 | 0.0 | 8.0 | 0.00 | 0.00 | 0.00 | 88 | 1015.5 |
| 20260510140033 | 20 | 233 | 1.6 | 6.4 | 0.00 | 0.00 | 0.00 | 92 | 1015.4 |
| 20260510134557 | 19 | 253 | 4.8 | 14.5 | 0.00 | 0.00 | 0.00 | 94 | 1015.2 |
| 20260510133036 | 18 | 251 | 1.6 | 8.0 | 0.00 | 0.00 | 0.00 | 94 | 1015.4 |
| 20260510131551 | 17 | 244 | 3.2 | 6.4 | 0.00 | 0.00 | 0.00 | 94 | 1015.2 |
| 20260510130007 | 17 | 142 | 0.0 | 0.0 | 0.00 | 0.00 | 0.00 | 94 | 1015.2 |
| 20260510124548 | 16 | 142 | 0.0 | 0.0 | 0.00 | 0.00 | 0.00 | 94 | 1015.2 |
| 20260510123005 | 15 | 142 | 0.0 | 0.0 | 0.00 | 0.00 | 0.00 | 93 | 1015.1 |
| 20260510121529 | 15 | 142 | 0.0 | 0.0 | 0.00 | 0.00 | 0.00 | 93 | 1015.0 |
| 20260510120005 | 14 | 142 | 0.0 | 0.0 | 0.00 | 0.00 | 0.00 | 92 | 1014.9 |
| 20260510114519 | 14 | 142 | 0.0 | 0.0 | 0.00 | 0.00 | 0.00 | 92 | 1014.9 |
| 20260510113036 | 14 | 142 | 0.0 | 0.0 | 0.00 | 0.00 | 0.00 | 92 | 1014.9 |
| 20260510111552 | 14 | 142 | 0.0 | 0.0 | 0.00 | 0.00 | 0.00 | 92 | 1014.6 |
| 20260510110034 | 14 | 142 | 0.0 | 0.0 | 0.00 | 0.00 | 0.00 | 92 | 1014.5 |
| 20260510104551 | 14 | 142 | 0.0 | 0.0 | 0.00 | 0.00 | 0.00 | 92 | 1014.1 |
| 20260510103055 | 14 | 142 | 0.0 | 1.6 | 0.00 | 0.00 | 0.00 | 92 | 1013.8 |
| 20260510101518 | 14 | 142 | 0.0 | 0.0 | 0.00 | 0.00 | 0.00 | 92 | 1013.6 |
| 20260510100100 | 14 | 142 | 0.0 | 1.6 | 0.00 | 0.00 | 0.00 | 91 | 1013.4 |
| 20260510100001 | 14 | 142 | 0.0 | 1.6 | 0.00 | 0.00 | 0.00 | 91 | 1013.5 |
| 20260510094516 | 14 | 142 | 0.0 | 0.0 | 0.00 | 0.00 | 0.00 | 91 | 1013.4 |
| 20260510093026 | 14 | 142 | 0.0 | 0.0 | 0.00 | 0.00 | 0.00 | 90 | 1013.1 |
| 20260510091552 | 14 | 142 | 0.0 | 0.0 | 0.00 | 0.00 | 0.00 | 90 | 1012.9 |
| 20260510090053 | 14 | 142 | 0.0 | 0.0 | 0.00 | 0.00 | 0.00 | 89 | 1012.7 |
| 20260510084516 | 14 | 142 | 0.0 | 0.0 | 0.00 | 0.00 | 0.00 | 88 | 1012.7 |
| 20260510083054 | 14 | 142 | 0.0 | 0.0 | 0.00 | 0.00 | 0.00 | 88 | 1012.8 |
| 20260510081526 | 14 | 142 | 0.0 | 0.0 | 0.00 | 0.00 | 0.00 | 86 | 1012.7 |
| 20260510080048 | 14 | 142 | 0.0 | 0.0 | 0.00 | 0.00 | 0.00 | 86 | 1012.6 |
| 20260510074514 | 14 | 142 | 0.0 | 0.0 | 0.00 | 0.00 | 0.00 | 86 | 1012.6 |
| 20260510073048 | 14 | 142 | 0.0 | 0.0 | 0.00 | 0.00 | 0.00 | 85 | 1012.6 |
| 20260510071507 | 15 | 142 | 0.0 | 0.0 | 0.00 | 0.00 | 0.00 | 84 | 1012.6 |
| 20260510070028 | 15 | 142 | 0.0 | 1.6 | 0.00 | 0.00 | 0.00 | 83 | 1012.5 |
| 20260510064602 | 15 | 142 | 0.0 | 0.0 | 0.00 | 0.00 | 0.00 | 83 | 1012.6 |
| 20260510063005 | 15 | 142 | 0.0 | 0.0 | 0.00 | 0.00 | 0.00 | 82 | 1012.3 |
| 20260510061522 | 15 | 142 | 0.0 | 1.6 | 0.00 | 0.00 | 0.00 | 82 | 1012.2 |
| 20260510060006 | 15 | 142 | 0.0 | 1.6 | 0.00 | 0.00 | 0.00 | 81 | 1012.1 |
| 20260510054553 | 15 | 144 | 0.0 | 0.0 | 0.00 | 0.00 | 0.00 | 82 | 1012.2 |
| 20260510003026 | 22 | 309 | 0.0 | 0.0 | 0.00 | 0.00 | 0.00 | 51 | 1010.2 |
| 20260510001538 | 23 | 309 | 0.0 | 0.0 | 0.00 | 0.00 | 0.00 | 49 | 1010.1 |
| 20260510000046 | 25 | 309 | 0.0 | 0.0 | 0.00 | 0.00 | 0.00 | 47 | 1010.0 |
| 20260509234536 | 26 | 309 | 0.0 | 0.0 | 0.00 | 0.00 | 0.00 | 44 | 1009.8 |
| 20260509233050 | 26 | 303 | 0.0 | 3.2 | 0.00 | 0.00 | 0.00 | 41 | 1009.6 |
| 20260509231525 | 27 | 231 | 0.0 | 4.8 | 0.00 | 0.00 | 0.00 | 41 | 1009.7 |
| 20260509230042 | 27 | 312 | 0.0 | 3.2 | 0.00 | 0.00 | 0.00 | 37 | 1009.6 |
| 20260509224555 | 27 | 320 | 0.0 | 8.0 | 0.00 | 0.00 | 0.00 | 35 | 1009.4 |
| 20260509223008 | 28 | 314 | 0.0 | 6.4 | 0.00 | 0.00 | 0.00 | 38 | 1009.4 |
| 20260509221557 | 28 | 307 | 0.0 | 6.4 | 0.00 | 0.00 | 0.00 | 42 | 1009.5 |
| 20260509220032 | 28 | 268 | 0.0 | 3.2 | 0.00 | 0.00 | 0.00 | 40 | 1009.6 |
| 20260509214550 | 28 | 274 | 0.0 | 6.4 | 0.00 | 0.00 | 0.00 | 33 | 1009.5 |
| 20260509213016 | 28 | 292 | 1.6 | 6.4 | 0.00 | 0.00 | 0.00 | 36 | 1009.6 |
| 20260509211532 | 28 | 234 | 0.0 | 4.8 | 0.00 | 0.00 | 0.00 | 40 | 1009.6 |
| 20260509210100 | 27 | 259 | 3.2 | 8.0 | 0.00 | 0.00 | 0.00 | 34 | 1009.6 |
| 20260509204536 | 27 | 323 | 1.6 | 9.7 | 0.00 | 0.00 | 0.00 | 34 | 1009.6 |
| 20260509203044 | 27 | 227 | 4.8 | 12.9 | 0.00 | 0.00 | 0.00 | 37 | 1009.8 |
| 20260509201518 | 27 | 219 | 1.6 | 9.7 | 0.00 | 0.00 | 0.00 | 38 | 1009.8 |
| 20260509200044 | 28 | 157 | 1.6 | 6.4 | 0.00 | 0.00 | 0.00 | 34 | 1009.9 |
| 20260509194601 | 28 | 348 | 0.0 | 9.7 | 0.00 | 0.00 | 0.00 | 39 | 1010.1 |
| 20260509194504 | 28 | 114 | 0.0 | 9.7 | 0.00 | 0.00 | 0.00 | 40 | 1010.1 |
| 20260509193022 | 28 | 90 | 1.6 | 9.7 | 0.00 | 0.00 | 0.00 | 46 | 1010.0 |
| 20260509191607 | 27 | 253 | 0.0 | 4.8 | 0.00 | 0.00 | 0.00 | 47 | 1010.0 |
| 20260509190003 | 27 | 24 | 0.0 | 14.5 | 0.00 | 0.00 | 0.00 | 42 | 1010.1 |
| 20260509184527 | 27 | 83 | 1.6 | 4.8 | 0.00 | 0.00 | 0.00 | 47 | 1010.2 |
| 20260509183050 | 26 | 54 | 4.8 | 11.3 | 0.00 | 0.00 | 0.00 | 50 | 1010.4 |
| 20260509181516 | 26 | 187 | 4.8 | 12.9 | 0.00 | 0.00 | 0.00 | 45 | 1010.5 |
| 20260509180028 | 26 | 280 | 1.6 | 14.5 | 0.00 | 0.00 | 0.00 | 50 | 1010.5 |
| 20260509174507 | 26 | 246 | 1.6 | 11.3 | 0.00 | 0.00 | 0.00 | 48 | 1010.7 |
| 20260509173040 | 25 | 217 | 1.6 | 12.9 | 0.00 | 0.00 | 0.00 | 47 | 1010.7 |
| 20260509171525 | 25 | 331 | 1.6 | 11.3 | 0.00 | 0.00 | 0.00 | 50 | 1010.6 |
| 20260509170029 | 25 | 303 | 1.6 | 12.9 | 0.00 | 0.00 | 0.00 | 54 | 1010.6 |